WJA277 CYYC-CYYJ
Flight info
| Callsign | WJA277 |
|---|---|
| Flight time | 1h 8m |
| Altitude | 36000 |
| Route | BOTAG Q894 BOOTH APASS8 |
| Aircraft | B737/M-SDE2E3FGHIRWXY/LB1 |
Departure
| Time | 2026-05-06 02:42 |
|---|---|
| Airport | Calgary International Airport (CYYC) |
Arrival
| Time | 2026-05-06 03:50 |
|---|---|
| Airport | Victoria International Airport (CYYJ) |
| Time | Latitude | Longitude | Altitude | Speed | Heading |
|---|---|---|---|---|---|
| 2026-05-06 02:12 | 51.12863 | -114.00255 | 3565 ft | 0 kts | 293° |
| 2026-05-06 02:23 | 51.12857 | -114.00232 | 3565 ft | 4 kts | 293° |
| 2026-05-06 02:23 | 51.12846 | -114.00192 | 3555 ft | 4 kts | 293° |
| 2026-05-06 02:23 | 51.12838 | -114.00153 | 3556 ft | 4 kts | 274° |
| 2026-05-06 02:23 | 51.12841 | -114.00113 | 3558 ft | 4 kts | 239° |
| 2026-05-06 02:24 | 51.12850 | -114.00093 | 3563 ft | 1 kts | 229° |
| 2026-05-06 02:24 | 51.12852 | -114.00090 | 3562 ft | 0 kts | 229° |
| 2026-05-06 02:30 | 51.12843 | -114.00106 | 3561 ft | 5 kts | 228° |
| 2026-05-06 02:30 | 51.12809 | -114.00138 | 3562 ft | 6 kts | 195° |
| 2026-05-06 02:30 | 51.12763 | -114.00144 | 3562 ft | 8 kts | 181° |
| 2026-05-06 02:30 | 51.12696 | -114.00143 | 3560 ft | 11 kts | 179° |
| 2026-05-06 02:31 | 51.12627 | -114.00170 | 3565 ft | 10 kts | 229° |
| 2026-05-06 02:31 | 51.12616 | -114.00297 | 3565 ft | 17 kts | 270° |
| 2026-05-06 02:31 | 51.12615 | -114.00550 | 3565 ft | 25 kts | 270° |
| 2026-05-06 02:31 | 51.12615 | -114.00819 | 3565 ft | 23 kts | 270° |
| 2026-05-06 02:32 | 51.12613 | -114.01071 | 3565 ft | 22 kts | 268° |
| 2026-05-06 02:32 | 51.12604 | -114.01313 | 3565 ft | 22 kts | 270° |
| 2026-05-06 02:32 | 51.12583 | -114.01484 | 3565 ft | 12 kts | 231° |
| 2026-05-06 02:32 | 51.12581 | -114.01598 | 3560 ft | 11 kts | 296° |
| 2026-05-06 02:33 | 51.12597 | -114.01719 | 3560 ft | 11 kts | 269° |
| 2026-05-06 02:33 | 51.12575 | -114.01794 | 3561 ft | 11 kts | 232° |
| 2026-05-06 02:33 | 51.12454 | -114.01922 | 3563 ft | 1 kts | 203° |
| 2026-05-06 02:34 | 51.12454 | -114.01938 | 3560 ft | 2 kts | 307° |
| 2026-05-06 02:34 | 51.12468 | -114.01928 | 3562 ft | 3 kts | 30° |
| 2026-05-06 02:34 | 51.12519 | -114.01875 | 3562 ft | 13 kts | 34° |
| 2026-05-06 02:34 | 51.12553 | -114.01817 | 3563 ft | 6 kts | 99° |
| 2026-05-06 02:35 | 51.12515 | -114.01795 | 3565 ft | 10 kts | 175° |
| 2026-05-06 02:35 | 51.12403 | -114.01794 | 3562 ft | 17 kts | 181° |
| 2026-05-06 02:35 | 51.12286 | -114.01795 | 3557 ft | 17 kts | 179° |
| 2026-05-06 02:35 | 51.12175 | -114.01794 | 3563 ft | 16 kts | 181° |
| 2026-05-06 02:36 | 51.12068 | -114.01797 | 3563 ft | 15 kts | 180° |
| 2026-05-06 02:36 | 51.11963 | -114.01796 | 3562 ft | 15 kts | 180° |
| 2026-05-06 02:36 | 51.11854 | -114.01796 | 3561 ft | 15 kts | 179° |
| 2026-05-06 02:36 | 51.11749 | -114.01796 | 3561 ft | 15 kts | 181° |
| 2026-05-06 02:37 | 51.11642 | -114.01797 | 3560 ft | 15 kts | 180° |
| 2026-05-06 02:37 | 51.11537 | -114.01796 | 3562 ft | 15 kts | 180° |
| 2026-05-06 02:37 | 51.11430 | -114.01796 | 3562 ft | 17 kts | 179° |
| 2026-05-06 02:37 | 51.11303 | -114.01795 | 3559 ft | 20 kts | 180° |
| 2026-05-06 02:38 | 51.11152 | -114.01795 | 3560 ft | 23 kts | 180° |
| 2026-05-06 02:38 | 51.10983 | -114.01796 | 3559 ft | 25 kts | 179° |
| 2026-05-06 02:38 | 51.10816 | -114.01797 | 3558 ft | 23 kts | 180° |
| 2026-05-06 02:38 | 51.10642 | -114.01797 | 3555 ft | 25 kts | 179° |
| 2026-05-06 02:39 | 51.10489 | -114.01797 | 3556 ft | 11 kts | 181° |
| 2026-05-06 02:39 | 51.10452 | -114.01798 | 3555 ft | 5 kts | 180° |
| 2026-05-06 02:39 | 51.10371 | -114.01797 | 3555 ft | 23 kts | 179° |
| 2026-05-06 02:39 | 51.10189 | -114.01799 | 3553 ft | 26 kts | 180° |
| 2026-05-06 02:40 | 51.10013 | -114.01798 | 3551 ft | 24 kts | 177° |
| 2026-05-06 02:40 | 51.09850 | -114.01795 | 3550 ft | 23 kts | 181° |
| 2026-05-06 02:40 | 51.09723 | -114.01808 | 3549 ft | 11 kts | 202° |
| 2026-05-06 02:40 | 51.09690 | -114.01909 | 3549 ft | 11 kts | 267° |
| 2026-05-06 02:41 | 51.09691 | -114.02010 | 3549 ft | 8 kts | 270° |
| 2026-05-06 02:41 | 51.09697 | -114.02101 | 3549 ft | 8 kts | 292° |
| 2026-05-06 02:41 | 51.09745 | -114.02135 | 3548 ft | 8 kts | 359° |
| 2026-05-06 02:41 | 51.09968 | -114.02135 | 3549 ft | 66 kts | 0° |
| 2026-05-06 02:42 | 51.10660 | -114.02137 | 3557 ft | 130 kts | 0° |
| 2026-05-06 02:42 | 51.11338 | -114.02116 | 3560 ft | 164 kts | 4° |
| 2026-05-06 02:42 | 51.12973 | -114.02064 | 4331 ft | 179 kts | 359° |
| 2026-05-06 02:42 | 51.13787 | -114.02174 | 4941 ft | 176 kts | 353° |
| 2026-05-06 02:43 | 51.15033 | -114.02474 | 5618 ft | 185 kts | 351° |
| 2026-05-06 02:43 | 51.16224 | -114.03110 | 6555 ft | 178 kts | 326° |
| 2026-05-06 02:43 | 51.17038 | -114.04550 | 7391 ft | 176 kts | 298° |
| 2026-05-06 02:43 | 51.17526 | -114.06348 | 8186 ft | 176 kts | 293° |
| 2026-05-06 02:44 | 51.17701 | -114.08358 | 8649 ft | 203 kts | 259° |
| 2026-05-06 02:44 | 51.17149 | -114.10586 | 8907 ft | 228 kts | 256° |
| 2026-05-06 02:44 | 51.16678 | -114.13127 | 9174 ft | 251 kts | 258° |
| 2026-05-06 02:44 | 51.16153 | -114.15936 | 9496 ft | 277 kts | 257° |
| 2026-05-06 02:45 | 51.15573 | -114.18895 | 10325 ft | 284 kts | 258° |
| 2026-05-06 02:45 | 51.14953 | -114.22025 | 10629 ft | 310 kts | 258° |
| 2026-05-06 02:45 | 51.14275 | -114.25424 | 10853 ft | 335 kts | 257° |
| 2026-05-06 02:45 | 51.13545 | -114.29035 | 11425 ft | 347 kts | 257° |
| 2026-05-06 02:46 | 51.12801 | -114.32672 | 12203 ft | 353 kts | 258° |
| 2026-05-06 02:46 | 51.12037 | -114.36401 | 13027 ft | 358 kts | 258° |
| 2026-05-06 02:46 | 51.11257 | -114.40205 | 13755 ft | 364 kts | 259° |
| 2026-05-06 02:46 | 51.10464 | -114.44082 | 14401 ft | 373 kts | 259° |
| 2026-05-06 02:47 | 51.09653 | -114.48033 | 15126 ft | 379 kts | 259° |
| 2026-05-06 02:47 | 51.08830 | -114.52038 | 15907 ft | 383 kts | 259° |
| 2026-05-06 02:47 | 51.07994 | -114.56095 | 16675 ft | 389 kts | 259° |
| 2026-05-06 02:47 | 51.07146 | -114.60214 | 17414 ft | 395 kts | 260° |
| 2026-05-06 02:48 | 51.06392 | -114.64426 | 18128 ft | 398 kts | 264° |
| 2026-05-06 02:48 | 51.05747 | -114.68726 | 18815 ft | 402 kts | 265° |
| 2026-05-06 02:48 | 51.05109 | -114.73063 | 19523 ft | 405 kts | 265° |
| 2026-05-06 02:48 | 51.04447 | -114.77427 | 20226 ft | 407 kts | 264° |
| 2026-05-06 02:49 | 51.03763 | -114.81820 | 20908 ft | 411 kts | 264° |
| 2026-05-06 02:49 | 51.03057 | -114.86236 | 21541 ft | 415 kts | 264° |
| 2026-05-06 02:49 | 51.02334 | -114.90686 | 22201 ft | 418 kts | 263° |
| 2026-05-06 02:49 | 51.01614 | -114.95099 | 22904 ft | 418 kts | 264° |
| 2026-05-06 02:50 | 51.00881 | -114.99599 | 23549 ft | 423 kts | 264° |
| 2026-05-06 02:50 | 51.00140 | -115.04151 | 24038 ft | 428 kts | 264° |
| 2026-05-06 02:50 | 50.99389 | -115.08760 | 24474 ft | 433 kts | 264° |
| 2026-05-06 02:50 | 50.98628 | -115.13401 | 24945 ft | 435 kts | 264° |
| 2026-05-06 02:51 | 50.97864 | -115.18039 | 25500 ft | 436 kts | 264° |
| 2026-05-06 02:51 | 50.97094 | -115.22710 | 25995 ft | 439 kts | 264° |
| 2026-05-06 02:51 | 50.96321 | -115.27420 | 26451 ft | 443 kts | 264° |
| 2026-05-06 02:51 | 50.95537 | -115.32170 | 26759 ft | 448 kts | 264° |
| 2026-05-06 02:52 | 50.94740 | -115.36954 | 27319 ft | 448 kts | 264° |
| 2026-05-06 02:52 | 50.93941 | -115.41730 | 27793 ft | 451 kts | 264° |
| 2026-05-06 02:52 | 50.93146 | -115.46490 | 28187 ft | 455 kts | 264° |
| 2026-05-06 02:52 | 50.92333 | -115.51356 | 28527 ft | 458 kts | 264° |
| 2026-05-06 02:53 | 50.91511 | -115.56254 | 28854 ft | 462 kts | 264° |
| 2026-05-06 02:53 | 50.90682 | -115.61180 | 29291 ft | 464 kts | 264° |
| 2026-05-06 02:53 | 50.89848 | -115.66131 | 29679 ft | 467 kts | 264° |
| 2026-05-06 02:53 | 50.89005 | -115.71114 | 30030 ft | 470 kts | 264° |
| 2026-05-06 02:54 | 50.88157 | -115.76113 | 30328 ft | 471 kts | 264° |
| 2026-05-06 02:54 | 50.87305 | -115.81119 | 30812 ft | 469 kts | 264° |
| 2026-05-06 02:54 | 50.86455 | -115.86083 | 31321 ft | 466 kts | 264° |
| 2026-05-06 02:54 | 50.85608 | -115.91013 | 31782 ft | 464 kts | 265° |
| 2026-05-06 02:55 | 50.84761 | -115.95935 | 32126 ft | 464 kts | 264° |
| 2026-05-06 02:55 | 50.83914 | -116.00858 | 32518 ft | 463 kts | 265° |
| 2026-05-06 02:55 | 50.83067 | -116.05770 | 32929 ft | 462 kts | 265° |
| 2026-05-06 02:55 | 50.82221 | -116.10658 | 33417 ft | 460 kts | 265° |
| 2026-05-06 02:56 | 50.81389 | -116.15461 | 33772 ft | 459 kts | 265° |
| 2026-05-06 02:56 | 50.80542 | -116.20349 | 33942 ft | 461 kts | 264° |
| 2026-05-06 02:56 | 50.79695 | -116.25188 | 34500 ft | 453 kts | 264° |
| 2026-05-06 02:56 | 50.78856 | -116.29961 | 34935 ft | 450 kts | 264° |
| 2026-05-06 02:57 | 50.78019 | -116.34747 | 35156 ft | 452 kts | 264° |
| 2026-05-06 02:57 | 50.77179 | -116.39554 | 35329 ft | 455 kts | 264° |
| 2026-05-06 02:57 | 50.76333 | -116.44360 | 35629 ft | 454 kts | 264° |
| 2026-05-06 02:57 | 50.75471 | -116.49161 | 35982 ft | 454 kts | 263° |
| 2026-05-06 02:58 | 50.74567 | -116.53950 | 35986 ft | 457 kts | 262° |
| 2026-05-06 02:58 | 50.72691 | -116.63530 | 36008 ft | 455 kts | 262° |
| 2026-05-06 02:59 | 50.70830 | -116.72935 | 35989 ft | 449 kts | 262° |
| 2026-05-06 02:59 | 50.68992 | -116.82288 | 35991 ft | 447 kts | 262° |
| 2026-05-06 03:00 | 50.67143 | -116.91736 | 35972 ft | 456 kts | 262° |
| 2026-05-06 03:00 | 50.65260 | -117.01245 | 36005 ft | 454 kts | 262° |
| 2026-05-06 03:01 | 50.63374 | -117.10716 | 35936 ft | 452 kts | 261° |
| 2026-05-06 03:01 | 50.61492 | -117.20135 | 35987 ft | 452 kts | 262° |
| 2026-05-06 03:02 | 50.59617 | -117.29529 | 35985 ft | 454 kts | 261° |
| 2026-05-06 03:02 | 50.57702 | -117.39047 | 35959 ft | 457 kts | 261° |
| 2026-05-06 03:03 | 50.55778 | -117.48554 | 35954 ft | 457 kts | 261° |
| 2026-05-06 03:03 | 50.53840 | -117.58038 | 35955 ft | 455 kts | 261° |
| 2026-05-06 03:04 | 50.51901 | -117.67496 | 35936 ft | 453 kts | 261° |
| 2026-05-06 03:04 | 50.49976 | -117.76856 | 35928 ft | 450 kts | 261° |
| 2026-05-06 03:05 | 50.48051 | -117.86194 | 35926 ft | 450 kts | 260° |
| 2026-05-06 03:05 | 50.46133 | -117.95447 | 35889 ft | 448 kts | 260° |
| 2026-05-06 03:06 | 50.44200 | -118.04729 | 35916 ft | 447 kts | 260° |
| 2026-05-06 03:06 | 50.42265 | -118.13988 | 35927 ft | 448 kts | 259° |
| 2026-05-06 03:07 | 50.40316 | -118.23250 | 35932 ft | 447 kts | 259° |
| 2026-05-06 03:07 | 50.38358 | -118.32514 | 35946 ft | 448 kts | 259° |
| 2026-05-06 03:08 | 50.36395 | -118.41768 | 35937 ft | 449 kts | 259° |
| 2026-05-06 03:08 | 50.34418 | -118.51044 | 35935 ft | 449 kts | 259° |
| 2026-05-06 03:09 | 50.32443 | -118.60264 | 35927 ft | 450 kts | 259° |
| 2026-05-06 03:09 | 50.30450 | -118.69529 | 35937 ft | 450 kts | 259° |
| 2026-05-06 03:10 | 50.28445 | -118.78803 | 35887 ft | 450 kts | 259° |
| 2026-05-06 03:10 | 50.26433 | -118.88059 | 35907 ft | 450 kts | 259° |
| 2026-05-06 03:11 | 50.24414 | -118.97332 | 35902 ft | 451 kts | 258° |
| 2026-05-06 03:11 | 50.22384 | -119.06599 | 35896 ft | 451 kts | 258° |
| 2026-05-06 03:12 | 50.20348 | -119.15856 | 35901 ft | 452 kts | 258° |
| 2026-05-06 03:12 | 50.18312 | -119.25070 | 35886 ft | 452 kts | 258° |
| 2026-05-06 03:13 | 50.16258 | -119.34322 | 35878 ft | 451 kts | 258° |
| 2026-05-06 03:13 | 50.14199 | -119.43552 | 35874 ft | 450 kts | 258° |
| 2026-05-06 03:14 | 50.12138 | -119.52752 | 35880 ft | 449 kts | 258° |
| 2026-05-06 03:14 | 50.10072 | -119.61937 | 35890 ft | 448 kts | 258° |
| 2026-05-06 03:15 | 50.08005 | -119.71085 | 35880 ft | 447 kts | 257° |
| 2026-05-06 03:15 | 50.05951 | -119.80134 | 35880 ft | 446 kts | 257° |
| 2026-05-06 03:16 | 50.03885 | -119.89204 | 35888 ft | 444 kts | 257° |
| 2026-05-06 03:16 | 50.01815 | -119.98253 | 35888 ft | 444 kts | 257° |
| 2026-05-06 03:17 | 49.99741 | -120.07272 | 35876 ft | 442 kts | 256° |
| 2026-05-06 03:17 | 49.97669 | -120.16252 | 35882 ft | 441 kts | 256° |
| 2026-05-06 03:18 | 49.95592 | -120.25218 | 35891 ft | 441 kts | 256° |
| 2026-05-06 03:18 | 49.93508 | -120.34175 | 35890 ft | 441 kts | 256° |
| 2026-05-06 03:19 | 49.91415 | -120.43131 | 35891 ft | 442 kts | 256° |
| 2026-05-06 03:19 | 49.89322 | -120.52051 | 35883 ft | 443 kts | 256° |
| 2026-05-06 03:20 | 49.86148 | -120.65507 | 35897 ft | 444 kts | 256° |
| 2026-05-06 03:20 | 49.84019 | -120.74487 | 35881 ft | 444 kts | 255° |
| 2026-05-06 03:21 | 49.81880 | -120.83467 | 35892 ft | 445 kts | 255° |
| 2026-05-06 03:21 | 49.79734 | -120.92443 | 35883 ft | 445 kts | 255° |
| 2026-05-06 03:22 | 49.77593 | -121.01364 | 35902 ft | 445 kts | 255° |
| 2026-05-06 03:22 | 49.75429 | -121.10338 | 35899 ft | 445 kts | 255° |
| 2026-05-06 03:23 | 49.73265 | -121.19280 | 35917 ft | 444 kts | 255° |
| 2026-05-06 03:23 | 49.71091 | -121.28225 | 35920 ft | 444 kts | 254° |
| 2026-05-06 03:24 | 49.68914 | -121.37144 | 35929 ft | 443 kts | 254° |
| 2026-05-06 03:24 | 49.66743 | -121.45986 | 35949 ft | 442 kts | 254° |
| 2026-05-06 03:25 | 49.64550 | -121.54906 | 35950 ft | 441 kts | 254° |
| 2026-05-06 03:25 | 49.62382 | -121.63710 | 35679 ft | 446 kts | 254° |
| 2026-05-06 03:26 | 49.61276 | -121.68180 | 35134 ft | 445 kts | 254° |
| 2026-05-06 03:26 | 49.60169 | -121.72641 | 34453 ft | 446 kts | 254° |
| 2026-05-06 03:26 | 49.59058 | -121.77110 | 33697 ft | 447 kts | 253° |
| 2026-05-06 03:26 | 49.57943 | -121.81585 | 32838 ft | 449 kts | 253° |
| 2026-05-06 03:27 | 49.56821 | -121.86080 | 31991 ft | 450 kts | 253° |
| 2026-05-06 03:27 | 49.55702 | -121.90546 | 31407 ft | 445 kts | 253° |
| 2026-05-06 03:27 | 49.54592 | -121.94977 | 30844 ft | 441 kts | 253° |
| 2026-05-06 03:27 | 49.53492 | -121.99356 | 30273 ft | 437 kts | 253° |
| 2026-05-06 03:28 | 49.52399 | -122.03690 | 29619 ft | 434 kts | 253° |
| 2026-05-06 03:28 | 49.51078 | -122.07864 | 28951 ft | 433 kts | 244° |
| 2026-05-06 03:28 | 49.49538 | -122.11716 | 28462 ft | 426 kts | 242° |
| 2026-05-06 03:28 | 49.47940 | -122.15532 | 27845 ft | 423 kts | 242° |
| 2026-05-06 03:29 | 49.46360 | -122.19329 | 27246 ft | 419 kts | 242° |
| 2026-05-06 03:29 | 49.44819 | -122.23107 | 26689 ft | 415 kts | 243° |
| 2026-05-06 03:29 | 49.43315 | -122.26857 | 26121 ft | 411 kts | 243° |
| 2026-05-06 03:29 | 49.41829 | -122.30585 | 25558 ft | 407 kts | 243° |
| 2026-05-06 03:30 | 49.40360 | -122.34267 | 24997 ft | 403 kts | 243° |
| 2026-05-06 03:30 | 49.38898 | -122.37933 | 24443 ft | 401 kts | 243° |
| 2026-05-06 03:30 | 49.37445 | -122.41571 | 23876 ft | 399 kts | 243° |
| 2026-05-06 03:30 | 49.35999 | -122.45197 | 23251 ft | 398 kts | 243° |
| 2026-05-06 03:31 | 49.34560 | -122.48794 | 22630 ft | 395 kts | 243° |
| 2026-05-06 03:31 | 49.33126 | -122.52373 | 22035 ft | 391 kts | 243° |
| 2026-05-06 03:31 | 49.31713 | -122.55897 | 21477 ft | 387 kts | 243° |
| 2026-05-06 03:31 | 49.30326 | -122.59352 | 20928 ft | 383 kts | 243° |
| 2026-05-06 03:32 | 49.28937 | -122.62805 | 20387 ft | 379 kts | 243° |
| 2026-05-06 03:32 | 49.27558 | -122.66228 | 19888 ft | 375 kts | 243° |
| 2026-05-06 03:32 | 49.26196 | -122.69597 | 19533 ft | 370 kts | 242° |
| 2026-05-06 03:32 | 49.24846 | -122.72932 | 19159 ft | 368 kts | 242° |
| 2026-05-06 03:33 | 49.23500 | -122.76254 | 18799 ft | 367 kts | 242° |
| 2026-05-06 03:33 | 49.22151 | -122.79582 | 18428 ft | 366 kts | 242° |
| 2026-05-06 03:33 | 49.20818 | -122.82867 | 18021 ft | 365 kts | 242° |
| 2026-05-06 03:33 | 49.19475 | -122.86172 | 17617 ft | 365 kts | 242° |
| 2026-05-06 03:34 | 49.18142 | -122.89450 | 17236 ft | 363 kts | 242° |
| 2026-05-06 03:34 | 49.16809 | -122.92724 | 16866 ft | 362 kts | 241° |
| 2026-05-06 03:34 | 49.15477 | -122.95990 | 16504 ft | 361 kts | 241° |
| 2026-05-06 03:34 | 49.14151 | -122.99237 | 16149 ft | 360 kts | 241° |
| 2026-05-06 03:35 | 49.12829 | -123.02473 | 15788 ft | 359 kts | 241° |
| 2026-05-06 03:35 | 49.11510 | -123.05699 | 15431 ft | 358 kts | 241° |
| 2026-05-06 03:35 | 49.10215 | -123.08858 | 15073 ft | 352 kts | 241° |
| 2026-05-06 03:35 | 49.08929 | -123.11988 | 14713 ft | 344 kts | 240° |
| 2026-05-06 03:36 | 49.07427 | -123.14787 | 14353 ft | 342 kts | 222° |
| 2026-05-06 03:36 | 49.05416 | -123.16675 | 14048 ft | 338 kts | 208° |
| 2026-05-06 03:36 | 49.03294 | -123.18159 | 13693 ft | 333 kts | 206° |
| 2026-05-06 03:36 | 49.01186 | -123.19562 | 13328 ft | 328 kts | 206° |
| 2026-05-06 03:37 | 48.99114 | -123.20944 | 12987 ft | 322 kts | 206° |
| 2026-05-06 03:37 | 48.97080 | -123.22320 | 12657 ft | 317 kts | 206° |
| 2026-05-06 03:37 | 48.95089 | -123.23682 | 12334 ft | 311 kts | 206° |
| 2026-05-06 03:37 | 48.93129 | -123.25032 | 12024 ft | 308 kts | 206° |
| 2026-05-06 03:38 | 48.91191 | -123.26371 | 11711 ft | 305 kts | 206° |
| 2026-05-06 03:38 | 48.89268 | -123.27698 | 11406 ft | 302 kts | 206° |
| 2026-05-06 03:38 | 48.87385 | -123.28999 | 11104 ft | 300 kts | 207° |
| 2026-05-06 03:38 | 48.85709 | -123.30797 | 10777 ft | 294 kts | 232° |
| 2026-05-06 03:39 | 48.84407 | -123.33165 | 10429 ft | 294 kts | 224° |
| 2026-05-06 03:39 | 48.82844 | -123.35154 | 10109 ft | 292 kts | 221° |
| 2026-05-06 03:39 | 48.81296 | -123.37119 | 9785 ft | 288 kts | 222° |
| 2026-05-06 03:39 | 48.79786 | -123.39085 | 9469 ft | 284 kts | 222° |
| 2026-05-06 03:40 | 48.78306 | -123.41030 | 9169 ft | 279 kts | 222° |
| 2026-05-06 03:40 | 48.76852 | -123.42948 | 8877 ft | 275 kts | 223° |
| 2026-05-06 03:40 | 48.75652 | -123.45145 | 8567 ft | 269 kts | 247° |
| 2026-05-06 03:40 | 48.75268 | -123.47846 | 8318 ft | 260 kts | 271° |
| 2026-05-06 03:41 | 48.75556 | -123.50510 | 8078 ft | 254 kts | 286° |
| 2026-05-06 03:41 | 48.76053 | -123.53063 | 7819 ft | 251 kts | 287° |
| 2026-05-06 03:41 | 48.76550 | -123.55575 | 7565 ft | 248 kts | 287° |
| 2026-05-06 03:41 | 48.77026 | -123.58035 | 7313 ft | 245 kts | 287° |
| 2026-05-06 03:42 | 48.77497 | -123.60500 | 7060 ft | 242 kts | 287° |
| 2026-05-06 03:42 | 48.77957 | -123.62931 | 6839 ft | 239 kts | 287° |
| 2026-05-06 03:42 | 48.78412 | -123.65335 | 6588 ft | 236 kts | 286° |
| 2026-05-06 03:42 | 48.78860 | -123.67718 | 6340 ft | 233 kts | 286° |
| 2026-05-06 03:43 | 48.79302 | -123.70072 | 6090 ft | 230 kts | 287° |
| 2026-05-06 03:43 | 48.79737 | -123.72393 | 5853 ft | 228 kts | 286° |
| 2026-05-06 03:43 | 48.80147 | -123.74701 | 5622 ft | 225 kts | 286° |
| 2026-05-06 03:43 | 48.80540 | -123.76969 | 5467 ft | 218 kts | 285° |
| 2026-05-06 03:44 | 48.80611 | -123.79200 | 5286 ft | 213 kts | 248° |
| 2026-05-06 03:44 | 48.79649 | -123.80794 | 5247 ft | 213 kts | 203° |
| 2026-05-06 03:44 | 48.78161 | -123.80910 | 5191 ft | 222 kts | 167° |
| 2026-05-06 03:44 | 48.76617 | -123.80646 | 5016 ft | 232 kts | 180° |
| 2026-05-06 03:45 | 48.74999 | -123.80595 | 4799 ft | 232 kts | 178° |
| 2026-05-06 03:45 | 48.73398 | -123.80434 | 4564 ft | 230 kts | 169° |
| 2026-05-06 03:45 | 48.72035 | -123.79295 | 4311 ft | 226 kts | 128° |
| 2026-05-06 03:45 | 48.71457 | -123.77155 | 4135 ft | 219 kts | 99° |
| 2026-05-06 03:46 | 48.71136 | -123.74917 | 3994 ft | 214 kts | 104° |
| 2026-05-06 03:46 | 48.70727 | -123.72741 | 3818 ft | 219 kts | 106° |
| 2026-05-06 03:46 | 48.70297 | -123.70533 | 3551 ft | 217 kts | 106° |
| 2026-05-06 03:46 | 48.69878 | -123.68379 | 3295 ft | 209 kts | 106° |
| 2026-05-06 03:47 | 48.69477 | -123.66303 | 3003 ft | 202 kts | 107° |
| 2026-05-06 03:47 | 48.69094 | -123.64326 | 2763 ft | 189 kts | 107° |
| 2026-05-06 03:47 | 48.68738 | -123.62472 | 2510 ft | 177 kts | 107° |
| 2026-05-06 03:47 | 48.68405 | -123.60743 | 2263 ft | 166 kts | 107° |
| 2026-05-06 03:48 | 48.68083 | -123.59075 | 2069 ft | 166 kts | 107° |
| 2026-05-06 03:48 | 48.67761 | -123.57402 | 1848 ft | 165 kts | 107° |
| 2026-05-06 03:48 | 48.67444 | -123.55753 | 1637 ft | 163 kts | 108° |
| 2026-05-06 03:48 | 48.67129 | -123.54111 | 1398 ft | 160 kts | 108° |
| 2026-05-06 03:49 | 48.66825 | -123.52528 | 1224 ft | 158 kts | 108° |
| 2026-05-06 03:49 | 48.66521 | -123.50945 | 990 ft | 155 kts | 108° |
| 2026-05-06 03:49 | 48.66221 | -123.49383 | 791 ft | 156 kts | 108° |
| 2026-05-06 03:49 | 48.65917 | -123.47795 | 600 ft | 158 kts | 107° |
| 2026-05-06 03:50 | 48.65618 | -123.46230 | 384 ft | 151 kts | 106° |
| 2026-05-06 03:50 | 48.65333 | -123.44727 | 180 ft | 142 kts | 105° |
| 2026-05-06 03:50 | 48.65078 | -123.43352 | 57 ft | 125 kts | 105° |
| 2026-05-06 03:50 | 48.64927 | -123.42637 | 59 ft | 26 kts | 113° |
| 2026-05-06 03:51 | 48.64851 | -123.42647 | 60 ft | 17 kts | 224° |
| 2026-05-06 03:51 | 48.64732 | -123.42814 | 60 ft | 24 kts | 222° |
| 2026-05-06 03:51 | 48.64616 | -123.42989 | 60 ft | 23 kts | 225° |
| 2026-05-06 03:51 | 48.64503 | -123.43153 | 61 ft | 22 kts | 223° |
| 2026-05-06 03:52 | 48.64390 | -123.43307 | 55 ft | 22 kts | 220° |
| 2026-05-06 03:52 | 48.64292 | -123.43443 | 56 ft | 12 kts | 218° |
| 2026-05-06 03:52 | 48.64239 | -123.43447 | 58 ft | 12 kts | 149° |
| 2026-05-06 03:52 | 48.64207 | -123.43314 | 60 ft | 16 kts | 92° |
| 2026-05-06 03:53 | 48.64205 | -123.43226 | 61 ft | 6 kts | 98° |
| 2026-05-06 03:53 | 48.64140 | -123.43168 | 56 ft | 9 kts | 188° |
| 2026-05-06 03:53 | 48.64130 | -123.43170 | 58 ft | 2 kts | 191° |
| 2026-05-06 03:53 | 48.64116 | -123.43174 | 57 ft | 4 kts | 190° |
| 2026-05-06 03:54 | 48.64114 | -123.43175 | 61 ft | 0 kts | 190° |